Time;durP1;ratioP1;P1;durP2;ratioP2;P2;SDS_P1;SDS_P2;PMS_P1;PMS_P2;Temp;Humidity;BMP_temperature;BMP_pressure;BME280_temperature;BME280_humidity;BME280_pressure;Samples;Min_cycle;Max_cycle;Signal;HPM_P1;HPM_P2
2023/03/08 10:51:52;;;;;;;24.60;9.55;;;;;;;4.07;100.00;96871.34;5025541;28;20378;-78
2023/03/08 10:54:19;;;;;;;35.05;8.27;;;;;;;4.20;100.00;96867.03;5026093;28;20052;-78
2023/03/08 10:56:52;;;;;;;21.23;9.40;;;;;;;4.50;100.00;96889.09;5025114;28;20054;-78
2023/03/08 10:59:26;;;;;;;21.90;8.75;;;;;;;4.52;100.00;96876.28;5019465;28;20046;-78
2023/03/08 11:01:55;;;;;;;14.98;8.50;;;;;;;4.72;100.00;96876.31;5024091;28;20432;-78
2023/03/08 11:04:23;;;;;;;17.63;8.85;;;;;;;4.93;100.00;96875.31;5024361;28;20049;-78
2023/03/08 11:06:51;;;;;;;15.35;8.60;;;;;;;5.06;100.00;96866.44;5024139;28;20489;-78
2023/03/08 11:09:24;;;;;;;17.52;8.05;;;;;;;5.20;100.00;96866.44;5023416;28;20045;-78
2023/03/08 11:11:51;;;;;;;15.05;7.55;;;;;;;5.32;100.00;96851.31;5023834;28;20058;-78
2023/03/08 11:14:17;;;;;;;19.00;7.70;;;;;;;5.60;100.00;96864.56;5021701;28;20053;-78
2023/03/08 11:17:10;;;;;;;14.35;7.68;;;;;;;5.68;100.00;96844.63;5024154;28;20050;-78
2023/03/08 11:19:48;;;;;;;13.90;6.97;;;;;;;5.89;100.00;96853.50;5005984;28;20055;-78
2023/03/08 11:22:25;;;;;;;24.13;8.05;;;;;;;5.90;100.00;96837.13;5023574;28;20362;-79
2023/03/08 11:25:11;;;;;;;15.63;6.45;;;;;;;6.11;100.00;96838.72;5023554;28;20054;-78
2023/03/08 11:28:07;;;;;;;11.73;5.43;;;;;;;6.38;100.00;96862.88;5023870;28;20488;-78
2023/03/08 11:30:46;;;;;;;12.50;6.63;;;;;;;6.46;100.00;96864.50;5021482;28;20052;-78
2023/03/08 11:33:34;;;;;;;11.77;3.40;;;;;;;6.39;100.00;96834.88;5023274;27;20050;-78
2023/03/08 11:36:07;;;;;;;9.70;4.18;;;;;;;6.49;100.00;96837.13;5089180;27;20062;-79
2023/03/08 11:38:36;;;;;;;5.63;3.30;;;;;;;6.59;100.00;96842.84;5060780;27;20042;-78
2023/03/08 11:41:15;;;;;;;8.60;2.53;;;;;;;6.86;100.00;96856.19;5020348;28;20084;-78
2023/03/08 11:44:04;;;;;;;5.22;2.42;;;;;;;7.05;100.00;96843.59;5021868;28;20049;-78
2023/03/08 11:46:40;;;;;;;3.67;2.20;;;;;;;7.21;100.00;96821.44;5022629;28;20049;-80
2023/03/08 11:49:36;;;;;;;4.95;2.10;;;;;;;7.55;100.00;96830.06;5023267;28;20327;-78
2023/03/08 11:52:14;;;;;;;3.60;1.52;;;;;;;7.64;100.00;96811.69;5014918;28;20415;-80
2023/03/08 11:54:53;;;;;;;4.25;1.90;;;;;;;7.74;100.00;96801.19;5023567;28;20052;-78
2023/03/08 11:57:20;;;;;;;2.13;1.23;;;;;;;7.95;100.00;96809.91;5023157;28;20059;-78
2023/03/08 11:59:52;;;;;;;3.97;1.50;;;;;;;8.12;100.00;96826.34;5009128;28;20057;-78
2023/03/08 12:02:22;;;;;;;1.60;1.10;;;;;;;8.24;100.00;96807.47;5008348;28;20049;-78
2023/03/08 12:05:00;;;;;;;2.65;1.08;;;;;;;8.33;100.00;96820.44;4996752;28;20690;-78
2023/03/08 12:07:34;;;;;;;1.30;0.90;;;;;;;8.40;100.00;96814.13;5010353;28;20054;-78
2023/03/08 12:10:08;;;;;;;1.00;0.85;;;;;;;8.42;100.00;96809.31;4991130;28;20421;-78
2023/03/08 12:12:39;;;;;;;2.17;1.00;;;;;;;8.50;100.00;96800.91;4990403;28;20050;-78
2023/03/08 12:15:15;;;;;;;1.00;0.90;;;;;;;8.53;100.00;96805.03;5002097;28;20064;-79
2023/03/08 12:17:49;;;;;;;2.10;1.17;;;;;;;8.70;100.00;96835.00;5009494;28;20157;-79
2023/03/08 12:20:18;;;;;;;1.20;0.80;;;;;;;8.77;100.00;96838.44;5005053;28;20086;-78
2023/03/08 12:22:47;;;;;;;1.20;0.80;;;;;;;8.85;100.00;96830.81;5013165;28;20057;-80
2023/03/08 12:25:24;;;;;;;0.90;0.90;;;;;;;8.85;100.00;96833.53;5002219;28;20070;-78
2023/03/08 12:27:55;;;;;;;2.67;0.85;;;;;;;8.98;100.00;96831.69;5007152;28;20124;-78
2023/03/08 12:30:35;;;;;;;3.70;1.00;;;;;;;8.95;100.00;96813.19;5010370;28;20136;-78
2023/03/08 12:33:04;;;;;;;0.52;0.52;;;;;;;9.16;100.00;96838.91;5007255;28;20054;-78
2023/03/08 12:35:32;;;;;;;2.65;1.13;;;;;;;9.03;100.00;96821.81;5027592;28;20051;-79
2023/03/08 12:38:01;;;;;;;1.50;1.00;;;;;;;9.15;100.00;96829.97;5008893;28;20069;-79
2023/03/08 12:40:37;;;;;;;2.17;0.90;;;;;;;9.05;100.00;96821.56;5039859;28;20052;-78
2023/03/08 12:43:07;;;;;;;2.35;0.80;;;;;;;9.24;100.00;96829.59;5018574;28;20061;-78
2023/03/08 12:45:34;;;;;;;1.25;0.70;;;;;;;9.17;100.00;96821.59;5005731;28;20050;-78
2023/03/08 12:48:09;;;;;;;1.33;0.88;;;;;;;9.27;100.00;96810.16;5009188;28;20042;-78
2023/03/08 12:50:40;;;;;;;2.05;0.82;;;;;;;9.42;100.00;96815.13;4989958;28;20051;-78
2023/03/08 12:53:23;;;;;;;1.27;0.82;;;;;;;9.51;100.00;96840.84;4989026;28;20061;-78
2023/03/08 12:56:02;;;;;;;1.10;0.90;;;;;;;9.65;100.00;96831.41;5009013;28;20390;-79
2023/03/08 12:58:30;;;;;;;2.13;0.73;;;;;;;9.80;100.00;96821.94;5002902;28;20106;-78
2023/03/08 13:01:01;;;;;;;1.70;0.88;;;;;;;9.86;100.00;96812.84;5009540;28;20073;-78
2023/03/08 13:03:37;;;;;;;3.50;0.95;;;;;;;9.98;99.33;96823.69;5007164;28;20048;-78
2023/03/08 13:06:15;;;;;;;0.65;0.50;;;;;;;10.09;98.49;96815.53;5004046;28;20042;-78
2023/03/08 13:08:50;;;;;;;2.28;0.80;;;;;;;10.16;97.40;96810.00;5005444;28;20042;-79
2023/03/08 13:11:20;;;;;;;1.48;1.05;;;;;;;10.27;98.36;96817.28;4997176;28;20054;-79
2023/03/08 13:13:52;;;;;;;1.13;0.70;;;;;;;10.26;97.18;96810.19;4995322;28;20054;-79
2023/03/08 13:16:30;;;;;;;1.63;0.90;;;;;;;10.54;96.12;96833.06;5087837;28;20052;-79
2023/03/08 13:19:06;;;;;;;1.10;0.98;;;;;;;10.51;95.62;96805.53;5086524;27;20049;-79
2023/03/08 13:21:36;;;;;;;1.42;0.60;;;;;;;10.68;95.05;96836.31;5008156;28;20046;-79
2023/03/08 13:24:11;;;;;;;1.27;0.98;;;;;;;10.69;96.69;96810.78;5001426;28;20129;-79
2023/03/08 13:26:53;;;;;;;1.83;0.77;;;;;;;10.77;94.38;96799.50;5008407;28;20046;-79
2023/03/08 13:29:21;;;;;;;0.85;0.70;;;;;;;10.80;92.30;96806.34;5002487;28;20386;-79
2023/03/08 13:31:48;;;;;;;0.93;0.80;;;;;;;10.89;92.30;96813.03;4995939;28;20073;-78
2023/03/08 13:34:25;;;;;;;1.02;0.68;;;;;;;10.95;92.52;96813.97;4997499;28;20057;-79
2023/03/08 13:36:51;;;;;;;1.45;0.60;;;;;;;10.93;91.28;96805.22;5005096;28;20393;-78
2023/03/08 13:39:20;;;;;;;0.85;0.60;;;;;;;11.00;91.52;96818.66;5005673;28;20053;-78
2023/03/08 13:41:49;;;;;;;1.85;0.70;;;;;;;10.87;91.77;96804.31;4989492;28;20121;-79
2023/03/08 13:44:18;;;;;;;1.40;0.90;;;;;;;11.02;91.28;96819.22;4992992;28;20052;-79
2023/03/08 13:46:48;;;;;;;0.68;0.45;;;;;;;11.11;90.75;96820.47;5000616;28;20043;-78
2023/03/08 13:49:18;;;;;;;1.48;0.70;;;;;;;11.18;90.42;96796.66;5008369;28;20065;-79
2023/03/08 13:51:48;;;;;;;0.60;0.47;;;;;;;11.37;89.28;96816.31;5008723;28;20076;-78
2023/03/08 13:54:22;;;;;;;0.47;0.47;;;;;;;11.46;87.46;96805.84;4996746;28;20045;-79
2023/03/08 13:56:53;;;;;;;1.50;0.28;;;;;;;11.46;88.23;96786.78;4999015;28;20058;-79
2023/03/08 13:59:21;;;;;;;0.40;0.40;;;;;;;11.56;86.48;96822.31;5002366;28;20046;-79
2023/03/08 14:01:48;;;;;;;1.15;0.40;;;;;;;11.33;88.48;96807.78;5008750;28;20053;-79
2023/03/08 14:04:20;;;;;;;0.30;0.30;;;;;;;11.24;88.93;96801.13;5007379;28;20046;-79
2023/03/08 14:06:51;;;;;;;3.40;0.63;;;;;;;11.13;90.00;96796.59;5002401;28;20050;-79
2023/03/08 14:09:18;;;;;;;1.60;0.70;;;;;;;11.03;90.47;96789.09;5001988;28;20050;-79
2023/03/08 14:11:46;;;;;;;6.10;0.60;;;;;;;10.95;93.55;96808.53;5008232;28;20046;-79
2023/03/08 14:14:22;;;;;;;0.80;0.55;;;;;;;10.87;96.17;96807.03;5007349;28;20053;-79
2023/03/08 14:16:53;;;;;;;0.55;0.55;;;;;;;10.75;99.59;96814.44;5002541;28;20137;-79
2023/03/08 14:19:23;;;;;;;4.47;1.58;;;;;;;10.57;100.00;96810.84;5007570;28;20046;-78
2023/03/08 14:21:52;;;;;;;0.80;0.80;;;;;;;10.29;100.00;96779.00;5006183;28;20227;-79
2023/03/08 14:24:21;;;;;;;1.10;0.70;;;;;;;10.23;100.00;96778.09;4987464;28;20060;-79
2023/03/08 14:26:55;;;;;;;3.13;0.70;;;;;;;10.28;100.00;96788.22;4990218;28;20057;-79
2023/03/08 14:29:23;;;;;;;1.08;0.80;;;;;;;10.36;100.00;96809.59;5041808;28;20043;-79
2023/03/08 14:31:58;;;;;;;1.65;0.90;;;;;;;10.25;100.00;96800.41;5008157;28;20050;-79
2023/03/08 14:34:28;;;;;;;0.40;0.40;;;;;;;10.28;100.00;96810.78;5007154;28;20049;-78
2023/03/08 14:36:59;;;;;;;0.77;0.57;;;;;;;10.19;100.00;96803.25;5013200;28;20485;-79
2023/03/08 14:39:27;;;;;;;0.73;0.52;;;;;;;10.16;100.00;96791.00;5007785;28;20045;-79
2023/03/08 14:41:55;;;;;;;1.55;0.77;;;;;;;10.19;100.00;96806.81;4988294;28;20412;-79
2023/03/08 14:44:25;;;;;;;5.00;0.82;;;;;;;10.12;100.00;96791.69;4995354;28;20045;-78
2023/03/08 14:46:57;;;;;;;3.00;0.80;;;;;;;10.04;100.00;96792.88;4994345;28;20423;-79
2023/03/08 14:49:25;;;;;;;0.60;0.50;;;;;;;10.02;100.00;96781.47;5007879;28;20057;-78
2023/03/08 14:51:52;;;;;;;0.80;0.70;;;;;;;10.04;100.00;96784.75;5006602;28;20049;-78
2023/03/08 14:54:29;;;;;;;0.50;0.50;;;;;;;10.13;100.00;96786.00;5007413;28;20447;-78
2023/03/08 14:56:56;;;;;;;3.63;0.65;;;;;;;10.17;100.00;96803.47;4992500;28;20057;-78
2023/03/08 14:59:24;;;;;;;0.70;0.70;;;;;;;10.13;100.00;96788.72;5002621;28;20521;-79
2023/03/08 15:01:51;;;;;;;6.38;0.90;;;;;;;10.09;100.00;96782.16;5000769;28;20152;-79
2023/03/08 15:04:19;;;;;;;2.85;0.70;;;;;;;10.11;100.00;96788.16;5003611;28;20050;-79
2023/03/08 15:06:47;;;;;;;1.70;0.80;;;;;;;10.24;100.00;96795.22;4999760;28;20065;-79
2023/03/08 15:09:17;;;;;;;8.50;0.52;;;;;;;10.15;100.00;96778.47;4988184;28;20064;-79
2023/03/08 15:11:44;;;;;;;1.02;0.60;;;;;;;10.16;100.00;96791.00;5003006;28;20133;-79
2023/03/08 15:14:12;;;;;;;0.68;0.47;;;;;;;10.02;100.00;96770.59;4997858;28;20053;-78
2023/03/08 15:16:40;;;;;;;0.75;0.60;;;;;;;10.00;100.00;96765.41;5007049;28;20050;-79
2023/03/08 15:19:07;;;;;;;6.10;0.60;;;;;;;10.16;100.00;96790.16;5006569;28;20041;-79
2023/03/08 15:21:36;;;;;;;0.50;0.50;;;;;;;10.07;100.00;96766.09;4998399;28;20054;-79
2023/03/08 15:24:03;;;;;;;0.57;0.57;;;;;;;10.00;100.00;96751.84;4991987;28;20038;-79
2023/03/08 15:26:31;;;;;;;3.72;0.88;;;;;;;10.02;100.00;96755.13;5000621;28;20050;-78
2023/03/08 15:29:01;;;;;;;0.90;0.70;;;;;;;9.98;100.00;96755.84;5007428;28;20054;-78
2023/03/08 15:31:28;;;;;;;1.38;0.90;;;;;;;10.12;100.00;96767.25;5006963;28;20433;-79
2023/03/08 15:33:56;;;;;;;1.25;0.65;;;;;;;10.05;100.00;96751.94;5006682;28;20058;-79
2023/03/08 15:36:23;;;;;;;0.60;0.60;;;;;;;9.99;100.00;96755.59;4997952;28;20146;-79
2023/03/08 15:38:49;;;;;;;7.72;0.80;;;;;;;10.04;100.00;96753.00;4996487;28;20058;-79
2023/03/08 15:41:16;;;;;;;3.63;0.80;;;;;;;9.96;100.00;96749.84;4997407;28;20489;-79
2023/03/08 15:43:43;;;;;;;5.82;0.80;;;;;;;10.02;100.00;96752.41;4994784;28;20050;-79
2023/03/08 15:46:11;;;;;;;1.70;0.75;;;;;;;9.89;100.00;96741.81;5008626;28;20125;-79
2023/03/08 15:48:38;;;;;;;0.73;0.45;;;;;;;10.10;100.00;96767.50;5007720;28;20058;-79
2023/03/08 15:51:06;;;;;;;2.58;0.88;;;;;;;10.05;100.00;96770.13;5010373;28;20499;-79
2023/03/08 15:53:33;;;;;;;0.75;0.63;;;;;;;10.00;100.00;96761.88;5002294;28;20057;-79
2023/03/08 15:55:59;;;;;;;1.10;0.77;;;;;;;9.90;100.00;96749.72;4991178;28;20050;-79
2023/03/08 15:58:26;;;;;;;2.25;0.70;;;;;;;9.73;100.00;96735.28;5004434;28;20511;-79
2023/03/08 16:00:52;;;;;;;1.15;0.77;;;;;;;9.86;100.00;96745.03;5008770;28;20057;-79
2023/03/08 16:03:24;;;;;;;0.65;0.60;;;;;;;9.98;100.00;96740.41;5008088;28;20046;-79
2023/03/08 16:05:51;;;;;;;0.47;0.47;;;;;;;9.96;100.00;96733.56;5002274;28;20556;-80
2023/03/08 16:08:20;;;;;;;0.50;0.50;;;;;;;9.94;100.00;96730.28;5004178;28;20512;-79
2023/03/08 16:10:46;;;;;;;0.32;0.32;;;;;;;9.90;100.00;96732.63;5010298;28;20054;-79
2023/03/08 16:13:13;;;;;;;1.23;0.90;;;;;;;10.09;100.00;96750.41;5009065;28;20277;-79
2023/03/08 16:15:40;;;;;;;1.95;0.57;;;;;;;9.99;100.00;96739.31;5010278;28;20060;-79
2023/03/08 16:18:06;;;;;;;1.85;1.05;;;;;;;10.10;100.00;96762.91;5001588;28;20046;-79
2023/03/08 16:20:33;;;;;;;1.98;0.70;;;;;;;9.98;100.00;96743.13;5001069;28;20416;-79
2023/03/08 16:22:59;;;;;;;0.98;0.43;;;;;;;9.94;100.00;96730.28;5008820;28;20054;-79
2023/03/08 16:25:27;;;;;;;0.40;0.40;;;;;;;10.00;100.00;96735.56;5009861;28;20054;-79
2023/03/08 16:27:53;;;;;;;2.17;0.52;;;;;;;9.91;100.00;96723.44;5010120;28;20057;-79
2023/03/08 16:30:20;;;;;;;0.52;0.50;;;;;;;9.96;100.00;96730.84;4997387;28;20132;-79
2023/03/08 16:32:47;;;;;;;3.38;0.60;;;;;;;10.04;100.00;96739.44;5009216;28;20057;-79
2023/03/08 16:35:13;;;;;;;0.38;0.38;;;;;;;10.00;100.00;96737.47;5007642;28;20053;-79
2023/03/08 16:37:40;;;;;;;1.50;0.80;;;;;;;9.84;100.00;96712.69;5031286;28;20069;-79
2023/03/08 16:40:13;;;;;;;1.58;0.82;;;;;;;10.01;100.00;96728.22;4998245;28;20050;-79
2023/03/08 16:42:41;;;;;;;1.77;0.90;;;;;;;9.78;100.00;96710.13;5007840;28;20076;-78
2023/03/08 16:45:08;;;;;;;3.83;0.90;;;;;;;9.83;100.00;96718.38;4995565;28;20051;-78
2023/03/08 16:47:35;;;;;;;1.08;0.70;;;;;;;9.94;100.00;96727.56;5001074;28;20050;-79
2023/03/08 16:50:03;;;;;;;0.70;0.60;;;;;;;9.89;100.00;96723.66;5006305;28;20477;-78
2023/03/08 16:52:30;;;;;;;0.88;0.70;;;;;;;9.80;100.00;96716.97;4995531;28;20520;-79
2023/03/08 16:54:56;;;;;;;3.28;1.13;;;;;;;9.99;100.00;96736.59;5008120;28;20056;-78
2023/03/08 16:57:23;;;;;;;0.88;0.77;;;;;;;9.84;100.00;96715.41;5003155;28;20050;-78
2023/03/08 16:59:51;;;;;;;1.35;0.65;;;;;;;9.75;100.00;96716.84;5004267;28;20057;-78
2023/03/08 17:02:19;;;;;;;3.17;0.68;;;;;;;9.76;100.00;96726.66;5001996;28;20418;-78
2023/03/08 17:04:47;;;;;;;2.15;0.85;;;;;;;9.76;100.00;96731.25;5086712;28;20040;-78
2023/03/08 17:07:14;;;;;;;1.05;0.80;;;;;;;9.63;100.00;96708.72;5005793;28;20128;-78
2023/03/08 17:09:41;;;;;;;0.70;0.70;;;;;;;9.57;100.00;96721.38;5009457;28;20076;-78
2023/03/08 17:12:09;;;;;;;1.02;0.52;;;;;;;9.55;100.00;96698.28;4995628;28;20053;-79
2023/03/08 17:14:35;;;;;;;2.20;1.05;;;;;;;9.51;100.00;96702.50;5009112;28;20050;-79
2023/03/08 17:17:04;;;;;;;1.88;1.00;;;;;;;9.60;100.00;96706.50;5008611;28;20050;-79
2023/03/08 17:19:47;;;;;;;0.80;0.70;;;;;;;9.71;100.00;96723.81;4999526;28;20042;-78
2023/03/08 17:22:13;;;;;;;1.30;0.80;;;;;;;9.56;100.00;96710.78;4997713;28;20048;-78
2023/03/08 17:24:40;;;;;;;2.22;1.00;;;;;;;9.65;100.00;96727.47;5011482;28;20045;-78
2023/03/08 17:27:06;;;;;;;1.55;0.80;;;;;;;9.57;100.00;96724.09;5006185;28;20416;-79
2023/03/08 17:29:33;;;;;;;2.55;1.27;;;;;;;9.50;100.00;96707.13;4999949;28;20558;-79
2023/03/08 17:31:59;;;;;;;3.58;1.85;;;;;;;9.65;100.00;96732.91;5003101;28;20400;-79
2023/03/08 17:34:27;;;;;;;3.65;1.60;;;;;;;9.61;100.00;96742.63;5008872;28;20668;-78
2023/03/08 17:36:54;;;;;;;5.55;1.00;;;;;;;9.67;100.00;96741.66;5045898;28;20141;-78
2023/03/08 17:39:20;;;;;;;1.17;0.82;;;;;;;9.44;100.00;96693.69;5009965;28;20042;-79
2023/03/08 17:41:47;;;;;;;1.10;0.60;;;;;;;9.44;100.00;96701.81;5005976;28;20089;-79
2023/03/08 17:44:14;;;;;;;1.65;1.10;;;;;;;9.44;100.00;96721.63;5001712;28;20053;-78
2023/03/08 17:46:41;;;;;;;1.27;0.80;;;;;;;9.38;100.00;96719.88;4988756;28;20053;-79
2023/03/08 17:49:07;;;;;;;1.08;0.88;;;;;;;9.34;100.00;96715.97;5033033;28;20039;-79
2023/03/08 17:51:35;;;;;;;1.35;1.25;;;;;;;9.43;100.00;96738.16;5094008;27;20046;-79
2023/03/08 17:54:02;;;;;;;0.82;0.82;;;;;;;9.35;100.00;96713.03;5005634;28;20057;-79
2023/03/08 17:56:31;;;;;;;1.30;1.05;;;;;;;9.25;100.00;96706.56;5004749;28;20485;-78
2023/03/08 17:58:59;;;;;;;1.42;0.95;;;;;;;9.30;100.00;96712.09;5035770;27;20049;-79
2023/03/08 18:01:27;;;;;;;1.15;1.00;;;;;;;9.42;100.00;96722.94;5006548;28;20058;-79
2023/03/08 18:03:56;;;;;;;1.60;0.80;;;;;;;9.35;100.00;96714.94;5007226;28;20408;-79
2023/03/08 18:06:27;;;;;;;1.67;1.05;;;;;;;9.51;100.00;96740.47;5008668;28;20065;-78
2023/03/08 18:08:55;;;;;;;1.35;1.00;;;;;;;9.47;100.00;96728.44;5007836;28;20046;-78
2023/03/08 18:11:24;;;;;;;1.05;0.80;;;;;;;9.54;100.00;96715.59;5006330;28;20408;-79
2023/03/08 18:13:50;;;;;;;2.03;0.95;;;;;;;9.57;100.00;96718.69;4995930;28;20069;-78
2023/03/08 18:16:17;;;;;;;4.13;0.90;;;;;;;9.66;100.00;96723.72;5008538;28;20099;-79
2023/03/08 18:18:48;;;;;;;1.67;0.70;;;;;;;9.67;100.00;96718.06;5007676;28;20054;-78
2023/03/08 18:21:15;;;;;;;0.70;0.65;;;;;;;9.56;100.00;96713.50;5007382;28;20052;-79
2023/03/08 18:23:42;;;;;;;1.27;0.60;;;;;;;9.64;100.00;96720.44;5005906;28;20045;-79
2023/03/08 18:26:10;;;;;;;0.60;0.60;;;;;;;9.53;100.00;96706.66;5008657;28;20064;-79
2023/03/08 18:28:37;;;;;;;1.10;0.60;;;;;;;9.65;100.00;96709.34;4990896;28;20052;-78
2023/03/08 18:31:07;;;;;;;2.90;0.60;;;;;;;9.62;100.00;96698.97;5004244;28;20404;-78
2023/03/08 18:33:33;;;;;;;;;;;;;;;9.79;100.00;96723.47;5006927;28;20489;-79
2023/03/08 18:36:00;;;;;;;1.27;0.75;;;;;;;9.84;100.00;96717.31;5006600;28;19921;-79
2023/03/08 18:38:26;;;;;;;0.90;0.40;;;;;;;9.73;100.00;96702.72;5035368;28;20193;-79
2023/03/08 18:40:53;;;;;;;0.68;0.60;;;;;;;9.76;100.00;96698.72;4991063;28;20054;-79
2023/03/08 18:43:21;;;;;;;0.60;0.60;;;;;;;9.73;100.00;96698.09;5004321;28;20050;-79
2023/03/08 18:45:51;;;;;;;2.90;0.85;;;;;;;9.68;100.00;96700.72;5008126;28;20067;-79
2023/03/08 18:48:18;;;;;;;0.98;0.70;;;;;;;9.71;100.00;96702.94;5007273;28;20065;-78
2023/03/08 18:50:44;;;;;;;1.27;0.73;;;;;;;9.76;100.00;96709.56;5004193;28;20050;-79
2023/03/08 18:53:11;;;;;;;1.15;0.60;;;;;;;9.79;100.00;96709.06;5001306;28;20054;-79
2023/03/08 18:55:38;;;;;;;1.38;0.70;;;;;;;9.67;100.00;96679.25;5007933;28;20506;-79
2023/03/08 18:58:05;;;;;;;1.38;0.80;;;;;;;9.71;100.00;96688.53;4988213;28;20050;-79
2023/03/08 19:00:33;;;;;;;3.35;0.60;;;;;;;9.70;100.00;96686.91;4988429;28;20046;-79
2023/03/08 19:02:59;;;;;;;1.83;0.73;;;;;;;9.75;100.00;96692.44;5005505;28;20140;-79
2023/03/08 19:05:26;;;;;;;2.70;0.88;;;;;;;9.89;100.00;96720.97;5007930;28;20060;-79
2023/03/08 19:07:53;;;;;;;0.85;0.60;;;;;;;9.84;100.00;96718.13;5004547;28;20057;-79
2023/03/08 19:10:19;;;;;;;0.70;0.60;;;;;;;9.71;100.00;96683.97;5005647;28;20100;-79
2023/03/08 19:12:46;;;;;;;1.20;0.77;;;;;;;9.61;100.00;96694.59;5007363;28;20050;-79
2023/03/08 19:15:12;;;;;;;1.33;0.75;;;;;;;9.63;100.00;96700.59;5006137;28;20641;-79
2023/03/08 19:17:40;;;;;;;1.33;0.80;;;;;;;9.65;100.00;96700.34;5003830;28;20045;-79
2023/03/08 19:20:08;;;;;;;1.38;0.95;;;;;;;9.74;100.00;96728.78;5008209;28;20046;-79
2023/03/08 19:22:35;;;;;;;1.75;0.80;;;;;;;9.51;100.00;96684.34;5008837;28;20049;-79
2023/03/08 19:25:04;;;;;;;1.95;0.80;;;;;;;9.57;100.00;96691.56;5011181;28;20046;-79
2023/03/08 19:27:32;;;;;;;1.35;0.88;;;;;;;9.57;100.00;96693.41;5006961;28;20493;-79
2023/03/08 19:29:59;;;;;;;0.98;0.63;;;;;;;9.60;100.00;96697.56;5003511;28;20060;-79
2023/03/08 19:32:26;;;;;;;2.67;0.75;;;;;;;9.49;100.00;96693.81;4991518;28;20064;-79
2023/03/08 19:34:54;;;;;;;0.68;0.60;;;;;;;9.59;100.00;96707.59;4991344;28;20054;-79
2023/03/08 19:37:20;;;;;;;1.08;0.75;;;;;;;9.42;100.00;96680.34;5001007;28;20046;-79
2023/03/08 19:39:47;;;;;;;0.82;0.73;;;;;;;9.52;100.00;96723.97;5026280;28;20068;-78
2023/03/08 19:42:15;;;;;;;1.98;0.82;;;;;;;9.32;100.00;96696.41;5009466;28;20053;-79
2023/03/08 19:44:47;;;;;;;0.60;0.60;;;;;;;9.23;100.00;96684.25;5004984;28;20046;-79
2023/03/08 19:47:13;;;;;;;0.65;0.50;;;;;;;9.36;100.00;96703.00;5007682;28;20049;-79
2023/03/08 19:49:40;;;;;;;1.75;0.77;;;;;;;9.32;100.00;96712.66;5006436;28;20076;-79
2023/03/08 19:52:08;;;;;;;1.25;0.60;;;;;;;9.26;100.00;96713.63;4999777;28;20043;-79
2023/03/08 19:54:35;;;;;;;1.42;0.80;;;;;;;9.11;100.00;96687.81;5007909;28;20046;-79
2023/03/08 19:57:02;;;;;;;0.93;0.82;;;;;;;9.15;100.00;96705.28;5000586;28;20485;-79
2023/03/08 19:59:28;;;;;;;1.48;0.50;;;;;;;9.15;100.00;96716.13;5006911;28;20050;-79
2023/03/08 20:01:56;;;;;;;1.40;0.90;;;;;;;8.97;100.00;96698.09;4990556;28;20058;-79
2023/03/08 20:04:23;;;;;;;1.58;1.15;;;;;;;8.95;100.00;96689.34;4990651;28;20065;-80
2023/03/08 20:06:51;;;;;;;1.80;0.90;;;;;;;8.94;100.00;96713.97;5000339;28;20050;-80
2023/03/08 20:09:21;;;;;;;4.25;1.05;;;;;;;8.81;100.00;96699.59;5010518;28;20052;-80
2023/03/08 20:11:49;;;;;;;2.35;1.50;;;;;;;8.93;100.00;96721.28;5010096;28;20459;-80
2023/03/08 20:14:15;;;;;;;1.85;0.80;;;;;;;8.80;100.00;96714.19;4995805;28;20042;-79
2023/03/08 20:16:42;;;;;;;2.00;0.95;;;;;;;8.75;100.00;96733.03;5003604;28;20057;-79
2023/03/08 20:19:08;;;;;;;2.55;1.33;;;;;;;8.73;100.00;96737.88;5004829;28;20058;-80
2023/03/08 20:21:35;;;;;;;1.98;1.17;;;;;;;8.60;100.00;96741.59;5010169;28;20046;-80
2023/03/08 20:24:02;;;;;;;2.95;1.52;;;;;;;8.66;100.00;96767.75;5008317;28;20106;-80
2023/03/08 20:26:33;;;;;;;4.65;1.55;;;;;;;8.58;100.00;96767.25;5003272;28;20056;-79
2023/03/08 20:29:01;;;;;;;3.80;1.90;;;;;;;8.55;100.00;96759.59;5002535;28;20382;-79
2023/03/08 20:31:29;;;;;;;3.80;2.20;;;;;;;8.64;100.00;96782.56;5009834;28;20046;-79
2023/03/08 20:33:56;;;;;;;2.60;1.63;;;;;;;8.59;100.00;96775.16;5005871;28;20478;-79
2023/03/08 20:36:23;;;;;;;4.85;1.95;;;;;;;8.52;100.00;96769.03;4998305;28;20060;-79
2023/03/08 20:38:50;;;;;;;2.03;1.30;;;;;;;8.56;100.00;96782.91;5009902;28;20103;-79
2023/03/08 20:41:18;;;;;;;4.03;1.83;;;;;;;8.59;100.00;96793.28;5006539;28;20042;-79
2023/03/08 20:43:48;;;;;;;4.63;1.70;;;;;;;8.52;100.00;96777.16;5006649;28;20074;-79
2023/03/08 20:46:17;;;;;;;5.85;1.38;;;;;;;8.47;100.00;96790.53;5007931;28;20049;-79
2023/03/08 20:48:45;;;;;;;3.03;1.48;;;;;;;8.48;100.00;96790.28;5009681;28;20057;-79
2023/03/08 20:51:14;;;;;;;2.55;1.30;;;;;;;8.53;100.00;96796.91;5008838;28;20038;-79
2023/03/08 20:53:41;;;;;;;3.05;1.45;;;;;;;8.64;100.00;96824.03;5009230;28;20048;-79
2023/03/08 20:56:11;;;;;;;7.13;2.22;;;;;;;8.55;100.00;96820.00;5007416;28;20492;-78
2023/03/08 20:58:38;;;;;;;7.47;3.35;;;;;;;8.55;100.00;96813.75;5005164;28;20060;-79
2023/03/08 21:01:14;;;;;;;4.72;3.08;;;;;;;8.66;100.00;96816.50;5006870;28;20489;-79
2023/03/08 21:03:41;;;;;;;6.30;3.20;;;;;;;8.54;100.00;96766.09;5008947;28;20061;-79
2023/03/08 21:06:12;;;;;;;5.07;2.78;;;;;;;8.49;100.00;96769.44;5007444;28;20107;-80
2023/03/08 21:08:39;;;;;;;7.38;2.50;;;;;;;8.43;100.00;96762.22;5002637;28;20058;-80
2023/03/08 21:11:05;;;;;;;4.13;1.50;;;;;;;8.64;100.00;96791.53;4994458;28;20057;-79
2023/03/08 21:13:32;;;;;;;1.83;1.35;;;;;;;8.62;100.00;96768.44;5005541;28;20072;-79
2023/03/08 21:16:02;;;;;;;4.80;2.05;;;;;;;8.44;100.00;96763.91;5004012;28;20049;-79
2023/03/08 21:18:30;;;;;;;1.77;1.40;;;;;;;8.54;100.00;96775.03;5005493;28;20053;-79
2023/03/08 21:20:57;;;;;;;1.73;1.30;;;;;;;8.58;100.00;96772.66;4999720;28;20053;-79
2023/03/08 21:23:24;;;;;;;2.83;1.35;;;;;;;8.32;100.00;96761.97;4989222;28;20409;-79
2023/03/08 21:25:51;;;;;;;3.05;1.25;;;;;;;8.43;100.00;96775.75;4989386;28;20058;-79
2023/03/08 21:28:18;;;;;;;2.13;1.35;;;;;;;8.36;100.00;96778.56;5007777;28;20070;-79
2023/03/08 21:30:45;;;;;;;1.70;0.93;;;;;;;8.30;100.00;96779.50;5008386;28;20053;-79
2023/03/08 21:33:12;;;;;;;2.28;1.23;;;;;;;8.32;100.00;96791.75;4991216;28;20123;-79
2023/03/08 21:35:40;;;;;;;3.03;1.00;;;;;;;8.18;100.00;96749.66;5006443;28;20342;-79
2023/03/08 21:38:08;;;;;;;1.60;1.23;;;;;;;8.33;100.00;96757.38;5005317;28;20053;-79
2023/03/08 21:40:36;;;;;;;2.05;0.98;;;;;;;8.30;100.00;96772.19;5008686;28;20054;-79
2023/03/08 21:43:02;;;;;;;2.25;1.05;;;;;;;8.30;100.00;96763.25;5008028;28;20053;-79
2023/03/08 21:45:29;;;;;;;3.70;1.45;;;;;;;8.22;100.00;96774.38;5009114;28;20046;-79
2023/03/08 21:47:56;;;;;;;2.22;0.90;;;;;;;8.13;100.00;96761.16;5002660;28;20048;-79
2023/03/08 21:50:23;;;;;;;2.97;1.00;;;;;;;8.23;100.00;96790.38;5006428;28;20103;-80
2023/03/08 21:52:51;;;;;;;3.42;1.58;;;;;;;8.22;100.00;96791.47;4995288;28;20080;-80
2023/03/08 21:55:18;;;;;;;3.13;1.10;;;;;;;8.21;100.00;96786.28;4989348;28;20066;-80
2023/03/08 21:57:44;;;;;;;2.75;1.38;;;;;;;8.17;100.00;96780.47;4999164;28;20409;-81
2023/03/08 22:00:15;;;;;;;4.30;1.73;;;;;;;8.14;100.00;96759.28;5008938;28;20060;-81
2023/03/08 22:02:44;;;;;;;2.80;1.30;;;;;;;8.25;100.00;96792.88;5007542;28;20564;-81
